createdAt,value
2023-05-18T00:01:57.781Z,3.83
2023-05-18T00:04:26.322Z,3.73
2023-05-18T00:06:58.546Z,3.83
2023-05-18T00:09:26.903Z,3.70
2023-05-18T00:11:55.338Z,3.57
2023-05-18T00:14:23.844Z,3.97
2023-05-18T00:16:54.735Z,3.87
2023-05-18T00:19:24.127Z,4.23
2023-05-18T00:21:55.948Z,3.53
2023-05-18T00:24:24.335Z,3.10
2023-05-18T00:26:52.626Z,3.80
2023-05-18T00:29:20.988Z,3.87
2023-05-18T00:31:49.269Z,4.20
2023-05-18T00:34:18.944Z,4.27
2023-05-18T00:36:47.277Z,3.50
2023-05-18T00:39:15.496Z,3.50
2023-05-18T00:41:43.784Z,3.50
2023-05-18T00:44:12.068Z,3.50
2023-05-18T00:46:41.492Z,3.30
2023-05-18T00:49:09.745Z,3.23
2023-05-18T00:51:39.700Z,3.50
2023-05-18T00:54:08.324Z,3.43
2023-05-18T00:56:37.190Z,2.90
2023-05-18T00:59:05.571Z,3.30
2023-05-18T01:01:36.345Z,3.07
2023-05-18T01:04:05.191Z,3.10
2023-05-18T01:06:36.228Z,3.63
2023-05-18T01:09:07.657Z,3.30
2023-05-18T01:11:41.803Z,3.50
2023-05-18T01:14:12.368Z,3.33
2023-05-18T01:16:43.996Z,3.90
2023-05-18T01:19:25.073Z,3.00
2023-05-18T01:21:58.754Z,3.47
2023-05-18T01:24:33.355Z,2.97
2023-05-18T01:27:03.769Z,2.90
2023-05-18T01:29:32.701Z,3.20
2023-05-18T01:32:00.988Z,2.97
2023-05-18T01:34:29.353Z,3.03
2023-05-18T01:36:57.754Z,3.13
2023-05-18T01:39:26.089Z,2.80
2023-05-18T01:41:56.724Z,4.00
2023-05-18T01:44:28.862Z,3.13
2023-05-18T01:47:01.163Z,3.17
2023-05-18T01:49:31.053Z,3.63
2023-05-18T01:52:00.480Z,3.13
2023-05-18T01:54:29.139Z,3.53
2023-05-18T01:56:57.852Z,3.27
2023-05-18T01:59:27.566Z,3.67
2023-05-18T02:01:59.983Z,3.50
2023-05-18T02:04:28.568Z,3.33
2023-05-18T02:06:56.904Z,3.57
2023-05-18T02:09:25.431Z,3.63
2023-05-18T02:11:53.715Z,4.03
2023-05-18T02:14:21.979Z,3.30
2023-05-18T02:16:53.236Z,3.23
2023-05-18T02:19:21.982Z,3.53
2023-05-18T02:21:50.409Z,3.37
2023-05-18T02:24:18.803Z,3.40
2023-05-18T02:26:47.057Z,3.37
2023-05-18T02:29:16.613Z,3.23
2023-05-18T02:31:48.770Z,3.43
2023-05-18T02:34:22.182Z,3.23
2023-05-18T02:37:06.584Z,3.20
2023-05-18T02:39:34.869Z,3.20
2023-05-18T02:42:03.213Z,3.77
2023-05-18T02:44:31.489Z,3.40
2023-05-18T02:46:59.785Z,3.37
2023-05-18T02:49:29.522Z,3.77
2023-05-18T02:51:57.819Z,3.23
2023-05-18T02:54:26.070Z,3.63
2023-05-18T02:56:56.952Z,3.40
2023-05-18T02:59:25.482Z,3.47
2023-05-18T03:01:53.783Z,3.60
2023-05-18T03:04:25.875Z,3.73
2023-05-18T03:06:57.259Z,3.50
2023-05-18T03:09:26.361Z,3.43
2023-05-18T03:11:54.589Z,3.37
2023-05-18T03:14:22.881Z,3.57
2023-05-18T03:16:54.189Z,4.00
2023-05-18T03:19:22.691Z,3.97
2023-05-18T03:21:51.155Z,3.60
2023-05-18T03:24:20.853Z,3.70
2023-05-18T03:26:49.157Z,3.63
2023-05-18T03:29:17.437Z,3.97
2023-05-18T03:31:45.768Z,3.80
2023-05-18T03:34:14.081Z,4.07
2023-05-18T03:36:47.385Z,3.43
2023-05-18T03:39:16.166Z,4.00
2023-05-18T03:41:46.063Z,4.20
2023-05-18T03:44:14.337Z,4.30
2023-05-18T03:46:42.703Z,3.73
2023-05-18T03:49:10.974Z,3.90
2023-05-18T03:51:39.268Z,4.03
2023-05-18T03:54:07.631Z,3.70
2023-05-18T03:56:35.963Z,4.27
2023-05-18T03:59:06.527Z,3.90
2023-05-18T04:01:34.902Z,4.40
2023-05-18T04:04:03.370Z,4.00
2023-05-18T04:06:31.660Z,4.20
2023-05-18T04:09:04.143Z,4.60
2023-05-18T04:11:32.463Z,3.97
2023-05-18T04:14:01.616Z,3.97
2023-05-18T04:16:31.510Z,4.20
2023-05-18T04:19:00.447Z,3.70
2023-05-18T04:21:35.409Z,4.20
2023-05-18T04:24:05.190Z,4.43
2023-05-18T04:26:33.464Z,4.43
2023-05-18T04:29:01.786Z,4.37
2023-05-18T04:31:31.520Z,4.73
2023-05-18T04:34:00.546Z,5.00
2023-05-18T04:36:30.984Z,4.57
2023-05-18T04:38:59.843Z,4.60
2023-05-18T04:41:28.194Z,4.27
2023-05-18T04:43:56.491Z,4.17
2023-05-18T04:46:24.968Z,4.10
2023-05-18T04:48:58.053Z,3.87
2023-05-18T04:51:26.645Z,4.00
2023-05-18T04:53:55.781Z,4.50
2023-05-18T04:56:24.085Z,3.70
2023-05-18T04:58:52.414Z,3.80
2023-05-18T05:01:21.048Z,3.83
2023-05-18T05:03:49.510Z,4.00
2023-05-18T05:06:19.271Z,4.50
2023-05-18T05:08:47.573Z,4.50
2023-05-18T05:11:16.015Z,3.83
2023-05-18T05:13:44.264Z,3.80
2023-05-18T05:16:12.696Z,4.07
2023-05-18T05:18:40.986Z,3.90
2023-05-18T05:21:10.492Z,3.93
2023-05-18T05:23:41.269Z,3.80
2023-05-18T05:26:09.590Z,4.57
2023-05-18T05:28:37.951Z,4.40
2023-05-18T05:31:06.442Z,3.63
2023-05-18T05:33:34.785Z,4.20
2023-05-18T05:36:04.881Z,3.50
2023-05-18T05:38:33.281Z,3.67
2023-05-18T05:41:03.210Z,3.80
2023-05-18T05:43:31.609Z,3.40
2023-05-18T05:45:59.862Z,3.63
2023-05-18T05:48:28.160Z,3.67
2023-05-18T05:50:56.729Z,3.77
2023-05-18T05:53:25.010Z,4.00
2023-05-18T05:55:53.274Z,3.80
2023-05-18T05:58:23.062Z,3.90
2023-05-18T06:00:51.349Z,3.33
2023-05-18T06:03:19.801Z,3.40
2023-05-18T06:05:48.070Z,3.20
2023-05-18T06:08:17.012Z,3.60
2023-05-18T06:10:45.426Z,3.73
2023-05-18T06:13:13.824Z,3.47
2023-05-18T06:15:43.458Z,3.50
2023-05-18T06:18:13.597Z,3.40
2023-05-18T06:20:42.142Z,3.23
2023-05-18T06:23:10.747Z,3.30
2023-05-18T06:25:39.074Z,3.97
2023-05-18T06:28:07.376Z,4.00
2023-05-18T06:30:35.800Z,4.20
2023-05-18T06:33:05.655Z,3.30
2023-05-18T06:35:34.104Z,3.73
2023-05-18T06:38:02.924Z,3.77
2023-05-18T06:40:31.176Z,3.67
2023-05-18T06:42:59.465Z,3.47
2023-05-18T06:45:27.846Z,3.40
2023-05-18T06:47:56.409Z,3.60
2023-05-18T06:50:26.457Z,2.93
2023-05-18T06:52:54.759Z,3.00
2023-05-18T06:55:23.051Z,3.40
2023-05-18T06:57:52.932Z,3.30
2023-05-18T07:00:21.733Z,3.17
2023-05-18T07:02:50.186Z,2.87
2023-05-18T07:05:19.106Z,2.77
2023-05-18T07:07:49.206Z,2.70
2023-05-18T07:10:17.710Z,2.63
2023-05-18T07:12:46.052Z,2.90
2023-05-18T07:15:14.350Z,2.50
2023-05-18T07:17:42.784Z,3.13
2023-05-18T07:20:11.798Z,3.10
2023-05-18T07:22:40.094Z,2.67
2023-05-18T07:25:10.425Z,2.93
2023-05-18T07:27:38.736Z,2.93
2023-05-18T07:30:07.970Z,3.37
2023-05-18T07:32:36.424Z,2.63
2023-05-18T07:35:04.906Z,3.10
2023-05-18T07:37:33.217Z,2.73
2023-05-18T07:40:01.633Z,3.13
2023-05-18T07:42:31.363Z,2.80
2023-05-18T07:44:59.693Z,2.60
2023-05-18T07:47:28.093Z,2.60
2023-05-18T07:49:56.455Z,2.70
2023-05-18T07:52:25.462Z,3.13
2023-05-18T07:54:56.977Z,2.53
2023-05-18T07:57:26.063Z,3.17
2023-05-18T07:59:55.839Z,2.60
2023-05-18T08:02:24.755Z,2.47
2023-05-18T08:04:53.553Z,2.70
2023-05-18T08:07:23.853Z,2.50
2023-05-18T08:09:52.235Z,2.90
2023-05-18T08:12:20.551Z,2.60
2023-05-18T08:14:48.857Z,3.10
2023-05-18T08:17:19.600Z,2.83
2023-05-18T08:19:55.418Z,3.40
2023-05-18T08:22:23.747Z,3.07
2023-05-18T08:24:52.021Z,2.57
2023-05-18T08:27:20.392Z,2.73
2023-05-18T08:29:48.656Z,2.90
2023-05-18T08:32:18.366Z,2.70
2023-05-18T08:34:46.782Z,2.60
2023-05-18T08:37:15.095Z,2.90
2023-05-18T08:39:45.962Z,3.30
2023-05-18T08:42:20.234Z,3.03
2023-05-18T08:44:52.108Z,2.83
2023-05-18T08:47:26.656Z,2.80
2023-05-18T08:49:57.739Z,3.00
2023-05-18T08:52:28.109Z,3.27
2023-05-18T08:54:56.915Z,3.43
2023-05-18T08:57:26.337Z,3.23
2023-05-18T08:59:54.812Z,3.20
2023-05-18T09:02:24.610Z,3.03
2023-05-18T09:04:53.433Z,2.87
2023-05-18T09:07:22.530Z,3.13
2023-05-18T09:09:50.908Z,2.80
2023-05-18T09:12:22.801Z,2.80
2023-05-18T09:14:53.177Z,2.90
2023-05-18T09:17:22.884Z,2.50
2023-05-18T09:19:52.542Z,3.20
2023-05-18T09:22:20.892Z,3.13
2023-05-18T09:24:49.580Z,2.80
2023-05-18T09:27:18.261Z,2.80
2023-05-18T09:29:54.091Z,3.00
2023-05-18T09:32:22.428Z,3.10
2023-05-18T09:34:50.680Z,3.03
2023-05-18T09:37:20.435Z,2.77
2023-05-18T09:39:59.625Z,2.87
2023-05-18T09:42:29.397Z,2.93
2023-05-18T09:44:57.692Z,2.87
2023-05-18T09:47:25.958Z,2.80
2023-05-18T09:49:54.301Z,2.80
2023-05-18T09:52:23.893Z,2.90
2023-05-18T09:54:55.003Z,3.50
2023-05-18T09:57:23.308Z,3.30
2023-05-18T09:59:56.867Z,3.27
2023-05-18T10:02:26.935Z,3.03
2023-05-18T10:04:55.274Z,3.20
2023-05-18T10:07:24.976Z,3.20
2023-05-18T10:10:02.397Z,3.40
2023-05-18T10:12:31.106Z,3.40
2023-05-18T10:14:59.391Z,3.20
2023-05-18T10:17:28.481Z,2.73
2023-05-18T10:19:57.407Z,3.23
2023-05-18T10:22:27.695Z,2.85
2023-05-18T10:24:56.875Z,3.20
2023-05-18T10:27:25.780Z,3.28
2023-05-18T10:29:55.175Z,2.78
2023-05-18T10:32:25.344Z,3.40
2023-05-18T10:34:54.183Z,3.50
2023-05-18T10:37:23.842Z,3.10
2023-05-18T10:39:54.097Z,3.33
2023-05-18T10:42:22.907Z,3.13
2023-05-18T10:44:52.258Z,3.10
2023-05-18T10:47:21.276Z,3.17
2023-05-18T10:49:50.425Z,3.60
2023-05-18T10:52:19.064Z,3.50
2023-05-18T10:54:47.930Z,3.15
2023-05-18T10:57:18.404Z,3.15
2023-05-18T10:59:48.194Z,3.13
2023-05-18T11:02:18.240Z,3.83
2023-05-18T11:04:47.718Z,2.90
2023-05-18T11:07:17.367Z,3.10
2023-05-18T11:09:47.023Z,3.70
2023-05-18T11:12:15.666Z,3.60
2023-05-18T11:14:52.194Z,2.95
2023-05-18T11:17:21.345Z,3.15
2023-05-18T11:20:16.650Z,3.20
2023-05-18T11:22:47.220Z,3.38
2023-05-18T11:25:34.267Z,3.00
2023-05-18T11:28:04.754Z,2.92
2023-05-18T11:30:46.884Z,2.80
2023-05-18T11:33:15.902Z,3.38
2023-05-18T11:35:55.990Z,3.20
2023-05-18T11:38:24.317Z,3.20
2023-05-18T11:40:52.888Z,2.85
2023-05-18T11:43:24.251Z,2.70
2023-05-18T11:45:59.124Z,2.85
2023-05-18T11:48:29.981Z,2.80
2023-05-18T11:50:58.716Z,2.72
2023-05-18T11:53:27.806Z,3.15
2023-05-18T11:56:15.246Z,2.90
2023-05-18T11:58:43.540Z,2.67
2023-05-18T12:01:14.383Z,2.75
2023-05-18T12:03:43.870Z,2.70
2023-05-18T12:06:13.874Z,2.95
2023-05-18T12:08:44.261Z,2.60
2023-05-18T12:11:15.303Z,2.65
2023-05-18T12:13:43.701Z,2.67
2023-05-18T12:16:15.242Z,2.40
2023-05-18T12:18:44.480Z,2.78
2023-05-18T12:21:12.757Z,2.58
2023-05-18T12:23:41.042Z,2.75
2023-05-18T12:26:09.375Z,2.17
2023-05-18T12:28:37.949Z,2.70
2023-05-18T12:31:08.447Z,2.63
2023-05-18T12:33:38.235Z,2.65
2023-05-18T12:36:11.612Z,2.58
2023-05-18T12:38:39.990Z,2.63
2023-05-18T12:41:08.809Z,2.90
2023-05-18T12:43:37.405Z,2.40
2023-05-18T12:46:05.970Z,2.75
2023-05-18T12:48:39.373Z,2.58
2023-05-18T12:51:08.024Z,2.25
2023-05-18T12:53:43.668Z,2.83
2023-05-18T12:56:12.793Z,2.60
2023-05-18T12:58:41.647Z,2.88
2023-05-18T13:01:10.285Z,2.75
2023-05-18T13:03:42.364Z,2.50
2023-05-18T13:06:11.110Z,2.60
2023-05-18T13:08:39.518Z,2.92
2023-05-18T13:11:14.306Z,2.80
2023-05-18T13:13:58.041Z,2.50
2023-05-18T13:16:26.367Z,2.97
2023-05-18T13:18:59.173Z,2.63
2023-05-18T13:21:27.608Z,2.42
2023-05-18T13:23:55.916Z,2.80
2023-05-18T13:26:24.613Z,3.35
2023-05-18T13:28:53.938Z,3.00
2023-05-18T13:31:22.433Z,2.88
2023-05-18T13:33:51.376Z,3.00
2023-05-18T13:36:21.231Z,2.75
2023-05-18T13:38:49.552Z,2.20
2023-05-18T13:41:17.861Z,2.80
2023-05-18T13:43:46.130Z,3.00
2023-05-18T13:46:14.950Z,3.03
2023-05-18T13:48:43.223Z,2.97
2023-05-18T13:51:11.510Z,3.33
2023-05-18T13:53:41.204Z,2.88
2023-05-18T13:56:09.582Z,2.90
2023-05-18T13:58:37.839Z,3.20
2023-05-18T14:01:08.223Z,2.80
2023-05-18T14:03:37.719Z,2.72
2023-05-18T14:06:06.160Z,3.00
2023-05-18T14:08:34.427Z,2.90
2023-05-18T14:11:04.119Z,3.10
2023-05-18T14:13:32.421Z,2.80
2023-05-18T14:16:00.724Z,3.10
2023-05-18T14:18:29.065Z,2.80
2023-05-18T14:21:02.004Z,2.90
2023-05-18T14:23:30.308Z,3.10
2023-05-18T14:25:58.622Z,3.40
2023-05-18T14:28:29.519Z,2.92
2023-05-18T14:30:58.025Z,2.83
2023-05-18T14:33:26.474Z,3.35
2023-05-18T14:35:55.972Z,2.70
2023-05-18T14:38:26.858Z,2.83
2023-05-18T14:40:55.224Z,3.20
2023-05-18T14:43:23.478Z,3.33
2023-05-18T14:46:06.891Z,3.38
2023-05-18T14:48:36.763Z,3.25
2023-05-18T14:51:05.284Z,2.67
2023-05-18T14:53:33.619Z,2.42
2023-05-18T14:56:06.032Z,2.50
2023-05-18T14:58:34.457Z,3.55
2023-05-18T15:01:04.383Z,2.47
2023-05-18T15:03:32.685Z,2.20
2023-05-18T15:06:01.142Z,2.58
2023-05-18T15:08:29.423Z,2.70
2023-05-18T15:10:57.840Z,2.40
2023-05-18T15:13:26.168Z,2.67
2023-05-18T15:15:54.513Z,2.25
2023-05-18T15:18:24.158Z,2.85
2023-05-18T15:20:52.456Z,2.50
2023-05-18T15:23:20.728Z,2.30
2023-05-18T15:25:49.049Z,3.17
2023-05-18T15:28:17.387Z,2.50
2023-05-18T15:30:46.001Z,2.60
2023-05-18T15:33:14.296Z,2.80
2023-05-18T15:35:44.027Z,2.60
2023-05-18T15:38:12.321Z,2.40
2023-05-18T15:40:42.015Z,2.70
2023-05-18T15:43:10.317Z,2.80
2023-05-18T15:45:38.647Z,2.88
2023-05-18T15:48:07.275Z,2.88
2023-05-18T15:50:35.685Z,2.75
2023-05-18T15:53:05.898Z,2.50
2023-05-18T15:55:34.227Z,2.40
2023-05-18T15:58:03.224Z,2.28
2023-05-18T16:00:32.444Z,2.40
2023-05-18T16:03:01.125Z,2.45
2023-05-18T16:05:29.556Z,2.40
2023-05-18T16:07:57.881Z,2.70
2023-05-18T16:10:27.582Z,2.88
2023-05-18T16:12:55.967Z,2.45
2023-05-18T16:15:24.883Z,2.33
2023-05-18T16:17:53.297Z,2.45
2023-05-18T16:20:21.650Z,2.13
2023-05-18T16:22:51.327Z,2.33
2023-05-18T16:25:19.641Z,2.40
2023-05-18T16:27:49.272Z,2.15
2023-05-18T16:30:17.524Z,2.30
2023-05-18T16:32:45.842Z,2.38
2023-05-18T16:35:14.185Z,2.38
2023-05-18T16:37:42.508Z,2.20
2023-05-18T16:40:11.061Z,2.67
2023-05-18T16:42:39.394Z,2.30
2023-05-18T16:45:09.512Z,2.22
2023-05-18T16:47:37.933Z,2.28
2023-05-18T16:50:06.915Z,2.35
2023-05-18T16:52:35.176Z,2.85
2023-05-18T16:55:03.510Z,2.30
2023-05-18T16:57:33.792Z,2.33
2023-05-18T17:00:02.196Z,2.33
2023-05-18T17:02:32.057Z,2.72
2023-05-18T17:05:00.969Z,2.25
2023-05-18T17:07:29.333Z,2.45
2023-05-18T17:09:57.650Z,2.28
2023-05-18T17:12:26.047Z,2.38
2023-05-18T17:14:54.826Z,2.40
2023-05-18T17:17:23.141Z,2.60
2023-05-18T17:19:52.863Z,2.47
2023-05-18T17:22:21.221Z,2.65
2023-05-18T17:24:49.889Z,2.50
2023-05-18T17:27:18.502Z,2.55
2023-05-18T17:29:47.102Z,2.53
2023-05-18T17:32:15.463Z,3.53
2023-05-18T17:34:43.774Z,3.13
2023-05-18T17:37:13.521Z,2.97
2023-05-18T17:39:42.196Z,2.37
2023-05-18T17:42:10.545Z,2.20
2023-05-18T17:44:38.889Z,2.43
2023-05-18T17:47:07.620Z,2.23
2023-05-18T17:49:36.031Z,2.40
2023-05-18T17:52:04.555Z,2.30
2023-05-18T17:54:34.279Z,2.70
2023-05-18T17:57:02.718Z,2.73
2023-05-18T17:59:31.015Z,2.80
2023-05-18T18:01:59.414Z,2.30
2023-05-18T18:04:27.788Z,2.37
2023-05-18T18:06:58.500Z,2.27
2023-05-18T18:09:26.934Z,2.47
2023-05-18T18:11:57.188Z,2.50
2023-05-18T18:14:25.699Z,2.63
2023-05-18T18:16:54.259Z,2.23
2023-05-18T18:19:23.178Z,2.43
2023-05-18T18:21:51.602Z,1.93
2023-05-18T18:24:21.409Z,2.40
2023-05-18T18:26:52.734Z,2.50
2023-05-18T18:29:22.455Z,3.23
2023-05-18T18:31:50.844Z,2.50
2023-05-18T18:34:19.211Z,2.80
2023-05-18T18:36:48.585Z,2.27
2023-05-18T18:39:16.952Z,2.93
2023-05-18T18:41:46.028Z,2.30
2023-05-18T18:44:14.363Z,2.50
2023-05-18T18:46:44.183Z,2.73
2023-05-18T18:49:12.649Z,2.50
2023-05-18T18:51:41.052Z,2.70
2023-05-18T18:54:09.445Z,2.63
2023-05-18T18:56:37.796Z,2.60
2023-05-18T18:59:06.150Z,2.53
2023-05-18T19:01:34.590Z,3.43
2023-05-18T19:04:04.580Z,2.70
2023-05-18T19:06:33.460Z,2.77
2023-05-18T19:09:01.885Z,2.67
2023-05-18T19:11:30.228Z,2.60
2023-05-18T19:13:58.853Z,2.67
2023-05-18T19:16:27.273Z,2.87
2023-05-18T19:18:55.744Z,3.27
2023-05-18T19:21:26.164Z,2.57
2023-05-18T19:23:54.480Z,2.90
2023-05-18T19:26:22.867Z,2.67
2023-05-18T19:28:51.271Z,2.37
2023-05-18T19:31:19.595Z,2.87
2023-05-18T19:33:48.430Z,2.60
2023-05-18T19:36:17.061Z,2.30
2023-05-18T19:38:47.861Z,2.83
2023-05-18T19:41:16.222Z,2.67
2023-05-18T19:43:44.550Z,2.83
2023-05-18T19:46:13.244Z,2.70
2023-05-18T19:48:41.725Z,2.40
2023-05-18T19:51:10.368Z,4.50
2023-05-18T19:53:38.791Z,2.87
2023-05-18T19:56:08.617Z,2.70
2023-05-18T19:58:36.833Z,2.73
2023-05-18T20:01:05.344Z,2.33
2023-05-18T20:03:33.642Z,2.27
2023-05-18T20:06:01.988Z,2.63
2023-05-18T20:08:30.298Z,2.40
2023-05-18T20:10:58.617Z,2.50
2023-05-18T20:13:28.351Z,2.83
2023-05-18T20:15:56.795Z,2.53
2023-05-18T20:18:25.958Z,2.43
2023-05-18T20:20:56.185Z,3.07
2023-05-18T20:23:24.521Z,2.30
2023-05-18T20:25:52.800Z,2.50
2023-05-18T20:28:21.211Z,2.77
2023-05-18T20:30:50.850Z,2.60
2023-05-18T20:33:19.119Z,2.70
2023-05-18T20:35:48.285Z,2.17
2023-05-18T20:38:16.863Z,2.43
2023-05-18T20:40:45.516Z,2.30
2023-05-18T20:43:17.915Z,3.00
2023-05-18T20:45:47.361Z,2.67
2023-05-18T20:48:24.639Z,2.53
2023-05-18T20:50:53.161Z,3.63
2023-05-18T20:53:21.604Z,2.70
2023-05-18T20:55:49.929Z,2.70
2023-05-18T20:58:19.112Z,3.10
2023-05-18T21:00:47.919Z,2.80
2023-05-18T21:03:18.574Z,3.40
2023-05-18T21:05:49.564Z,3.30
2023-05-18T21:08:17.947Z,3.03
2023-05-18T21:10:46.304Z,3.10
2023-05-18T21:13:15.038Z,2.90
2023-05-18T21:15:43.296Z,2.80
2023-05-18T21:18:11.669Z,2.80
2023-05-18T21:20:41.410Z,2.97
2023-05-18T21:23:09.654Z,3.17
2023-05-18T21:25:37.945Z,2.70
2023-05-18T21:28:06.398Z,2.63
2023-05-18T21:30:34.658Z,3.13
2023-05-18T21:33:03.190Z,3.30
2023-05-18T21:35:31.654Z,3.60
2023-05-18T21:38:01.365Z,2.93
2023-05-18T21:40:30.002Z,2.90
2023-05-18T21:42:58.373Z,3.17
2023-05-18T21:45:26.648Z,2.80
2023-05-18T21:47:54.938Z,2.90
2023-05-18T21:50:23.266Z,2.87
2023-05-18T21:52:51.520Z,2.90
2023-05-18T21:55:21.242Z,2.90
2023-05-18T21:57:49.522Z,2.80
2023-05-18T22:00:18.215Z,3.03
2023-05-18T22:02:46.484Z,2.97
2023-05-18T22:05:14.778Z,3.27
2023-05-18T22:07:43.076Z,3.17
2023-05-18T22:10:12.659Z,3.20
2023-05-18T22:12:43.460Z,3.20
2023-05-18T22:15:12.097Z,3.10
2023-05-18T22:17:40.477Z,3.30
2023-05-18T22:20:11.289Z,3.07
2023-05-18T22:22:40.235Z,3.20
2023-05-18T22:25:09.163Z,3.20
2023-05-18T22:27:38.556Z,3.20
2023-05-18T22:30:08.926Z,2.97
2023-05-18T22:32:38.207Z,3.40
2023-05-18T22:35:06.944Z,3.60
2023-05-18T22:37:35.266Z,3.63
2023-05-18T22:40:06.072Z,3.30
2023-05-18T22:42:34.405Z,3.40
2023-05-18T22:45:02.921Z,3.50
2023-05-18T22:47:33.853Z,3.90
2023-05-18T22:50:02.246Z,4.00
2023-05-18T22:52:30.774Z,3.40
2023-05-18T22:54:58.991Z,3.47
2023-05-18T22:57:27.312Z,3.73
2023-05-18T22:59:55.600Z,3.73
2023-05-18T23:02:23.855Z,4.00
2023-05-18T23:04:53.525Z,3.97
2023-05-18T23:07:23.657Z,4.50
2023-05-18T23:09:52.269Z,4.00
2023-05-18T23:12:20.553Z,4.00
2023-05-18T23:14:49.662Z,4.30
2023-05-18T23:17:18.772Z,3.70
2023-05-18T23:19:48.270Z,3.90
2023-05-18T23:22:17.939Z,4.00
2023-05-18T23:24:46.248Z,4.20
2023-05-18T23:27:14.535Z,4.60
2023-05-18T23:29:43.292Z,4.23
2023-05-18T23:32:11.548Z,3.90
2023-05-18T23:34:40.099Z,4.00
2023-05-18T23:37:10.612Z,4.17
2023-05-18T23:39:41.617Z,3.90
2023-05-18T23:42:10.321Z,3.97
2023-05-18T23:44:38.971Z,3.80
2023-05-18T23:47:07.609Z,4.67
2023-05-18T23:49:36.119Z,4.20
2023-05-18T23:52:04.665Z,4.10
2023-05-18T23:54:33.262Z,4.03
2023-05-18T23:57:03.726Z,4.80
2023-05-18T23:59:32.454Z,4.00
